Time;durP1;ratioP1;P1;durP2;ratioP2;P2;SDS_P1;SDS_P2;PMS_P1;PMS_P2;Temp;Humidity;BMP_temperature;BMP_pressure;BME280_temperature;BME280_humidity;BME280_pressure;Samples;Min_cycle;Max_cycle;Signal;HPM_P1;HPM_P2
2023/11/03 00:02:15;;;;;;;2.70;1.70;;;11.20;99.90;;;;;;4913731;29;20504;-62
2023/11/03 00:04:43;;;;;;;1.77;1.63;;;11.20;99.90;;;;;;4911881;28;20592;-61
2023/11/03 00:07:13;;;;;;;3.37;1.77;;;11.20;99.90;;;;;;4912265;29;20494;-61
2023/11/03 00:09:42;;;;;;;2.53;1.87;;;11.20;99.90;;;;;;4915206;29;20475;-61
2023/11/03 00:12:10;;;;;;;2.33;1.30;;;11.10;99.90;;;;;;4912135;29;20496;-61
2023/11/03 00:14:38;;;;;;;3.70;1.77;;;11.10;99.90;;;;;;4915823;28;20527;-61
2023/11/03 00:17:06;;;;;;;3.23;1.60;;;11.10;99.90;;;;;;4918641;29;20784;-61
2023/11/03 00:19:35;;;;;;;1.77;1.40;;;11.10;99.90;;;;;;4914531;29;21069;-62
2023/11/03 00:22:03;;;;;;;3.53;1.90;;;11.10;99.90;;;;;;4917106;29;20931;-61
2023/11/03 00:24:33;;;;;;;4.13;1.80;;;11.10;99.90;;;;;;4918705;28;20491;-62
2023/11/03 00:27:01;;;;;;;2.23;1.50;;;11.10;99.90;;;;;;4915109;29;20586;-61
2023/11/03 00:29:30;;;;;;;2.90;1.60;;;11.00;99.90;;;;;;4919641;29;20560;-62
2023/11/03 00:31:58;;;;;;;1.83;1.40;;;11.10;99.90;;;;;;4919950;29;21091;-61
2023/11/03 00:34:26;;;;;;;1.63;1.50;;;11.00;99.90;;;;;;4914115;28;20495;-62
2023/11/03 00:36:54;;;;;;;3.90;1.50;;;11.00;99.90;;;;;;4910205;29;20567;-61
2023/11/03 00:39:22;;;;;;;2.40;1.40;;;11.10;99.90;;;;;;4914756;29;20475;-61
2023/11/03 00:41:52;;;;;;;2.63;1.50;;;11.00;99.90;;;;;;4918336;29;20947;-61
2023/11/03 00:44:20;;;;;;;3.33;1.77;;;11.00;99.90;;;;;;4913878;28;20492;-61
2023/11/03 00:46:49;;;;;;;4.20;1.40;;;11.00;99.90;;;;;;4918132;29;20479;-62
2023/11/03 00:49:18;;;;;;;1.70;1.60;;;11.00;99.90;;;;;;4911037;29;20503;-61
2023/11/03 00:51:46;;;;;;;3.70;2.00;;;11.00;99.90;;;;;;4916810;29;20492;-61
2023/11/03 00:54:15;;;;;;;3.23;1.53;;;11.00;99.90;;;;;;4913143;28;20492;-61
2023/11/03 00:56:43;;;;;;;2.30;1.50;;;10.90;99.90;;;;;;4916461;29;21129;-62
2023/11/03 00:59:12;;;;;;;3.50;1.30;;;10.90;99.90;;;;;;4917084;29;21194;-61
2023/11/03 01:01:40;;;;;;;3.50;1.90;;;10.90;99.90;;;;;;4919767;29;20991;-61
2023/11/03 01:04:09;;;;;;;3.00;1.90;;;11.00;99.90;;;;;;4913517;28;20689;-61
2023/11/03 01:06:38;;;;;;;2.30;1.50;;;10.90;99.90;;;;;;4911249;29;20623;-61
2023/11/03 01:09:07;;;;;;;2.87;1.30;;;10.90;99.90;;;;;;4914947;29;21260;-62
2023/11/03 01:11:36;;;;;;;3.53;1.30;;;10.90;99.90;;;;;;4895607;29;20514;-62
2023/11/03 01:14:05;;;;;;;1.97;1.37;;;10.90;99.90;;;;;;4895263;28;21252;-61
2023/11/03 01:16:36;;;;;;;1.93;1.43;;;10.90;99.90;;;;;;4892794;29;20620;-62
2023/11/03 01:19:04;;;;;;;3.93;1.90;;;10.80;99.90;;;;;;4899746;29;20479;-61
2023/11/03 01:21:33;;;;;;;2.57;1.83;;;10.90;99.90;;;;;;4894675;29;20484;-61
2023/11/03 01:24:01;;;;;;;2.80;1.47;;;10.80;99.90;;;;;;4889857;28;21494;-61
2023/11/03 01:26:29;;;;;;;3.27;1.70;;;10.80;99.90;;;;;;4904043;29;20885;-62
2023/11/03 01:28:57;;;;;;;2.60;1.20;;;10.80;99.90;;;;;;4915956;29;20486;-62
2023/11/03 01:31:25;;;;;;;4.10;1.60;;;10.80;99.90;;;;;;4909796;29;21002;-61
2023/11/03 01:33:55;;;;;;;1.67;1.20;;;10.80;99.90;;;;;;4914029;28;20615;-62
2023/11/03 01:36:23;;;;;;;2.80;1.40;;;10.80;99.90;;;;;;4911123;29;21010;-62
2023/11/03 01:38:51;;;;;;;3.87;1.50;;;10.70;99.90;;;;;;4914209;29;20513;-62
2023/11/03 01:41:19;;;;;;;2.20;1.00;;;10.70;99.90;;;;;;4918471;29;20485;-62
2023/11/03 01:44:06;;;;;;;2.70;1.47;;;10.70;99.90;;;;;;4906340;28;20848;-62
2023/11/03 01:46:36;;;;;;;4.43;1.63;;;10.70;99.90;;;;;;4908014;29;20603;-62
2023/11/03 01:49:08;;;;;;;1.60;1.50;;;10.60;99.90;;;;;;4914140;29;20577;-62
2023/11/03 01:51:37;;;;;;;2.37;1.50;;;10.60;99.90;;;;;;4913440;29;20503;-62
2023/11/03 01:54:06;;;;;;;1.90;1.80;;;10.60;99.90;;;;;;4915069;28;20516;-62
2023/11/03 01:56:36;;;;;;;2.37;1.40;;;10.60;99.90;;;;;;4917483;29;21137;-62
2023/11/03 01:59:06;;;;;;;3.07;1.30;;;10.60;99.90;;;;;;4916584;29;20502;-62
2023/11/03 02:01:36;;;;;;;2.07;1.40;;;10.50;99.90;;;;;;4913457;29;20473;-62
2023/11/03 02:04:06;;;;;;;4.23;1.47;;;10.50;99.90;;;;;;4912537;28;20496;-61
2023/11/03 02:06:34;;;;;;;3.10;1.80;;;10.50;99.90;;;;;;4917700;29;20478;-61
2023/11/03 02:09:05;;;;;;;1.80;1.10;;;10.50;99.90;;;;;;4914303;29;20476;-62
2023/11/03 02:11:33;;;;;;;3.80;1.63;;;10.50;99.90;;;;;;4916226;29;20479;-62
2023/11/03 02:14:01;;;;;;;1.80;1.50;;;10.50;99.90;;;;;;4913777;28;20936;-62
2023/11/03 02:16:29;;;;;;;3.67;1.20;;;10.40;99.90;;;;;;4914096;29;20518;-62
2023/11/03 02:18:58;;;;;;;1.90;1.20;;;10.40;99.90;;;;;;4916682;29;20566;-62
2023/11/03 02:21:28;;;;;;;3.40;1.37;;;10.40;99.90;;;;;;4917422;29;20475;-62
2023/11/03 02:23:57;;;;;;;2.63;2.43;;;10.40;99.90;;;;;;4915646;28;20598;-61
2023/11/03 02:26:25;;;;;;;1.83;1.37;;;10.30;99.90;;;;;;4918015;29;20475;-64
2023/11/03 02:28:53;;;;;;;2.70;1.20;;;10.30;99.90;;;;;;4915020;29;20476;-63
2023/11/03 02:31:21;;;;;;;2.47;1.30;;;10.30;99.90;;;;;;4914919;29;20520;-63
2023/11/03 02:33:49;;;;;;;2.20;1.17;;;10.20;99.90;;;;;;4918274;28;20484;-64
2023/11/03 02:36:18;;;;;;;2.03;1.30;;;10.30;99.90;;;;;;4916057;29;20981;-64
2023/11/03 02:38:46;;;;;;;1.40;1.17;;;10.20;99.90;;;;;;4915367;29;20583;-64
2023/11/03 02:41:16;;;;;;;3.80;1.40;;;10.20;99.90;;;;;;4915753;29;21160;-64
2023/11/03 02:43:44;;;;;;;3.83;1.30;;;10.20;99.90;;;;;;4917528;28;20494;-64
2023/11/03 02:46:12;;;;;;;2.60;1.33;;;10.20;99.90;;;;;;4915518;29;21653;-64
2023/11/03 02:48:41;;;;;;;1.63;1.20;;;10.20;99.90;;;;;;4915203;29;20541;-64
2023/11/03 02:51:09;;;;;;;2.20;1.50;;;10.20;99.90;;;;;;4916944;29;20512;-62
2023/11/03 02:53:37;;;;;;;4.03;1.30;;;10.20;99.90;;;;;;4913477;28;20994;-61
2023/11/03 02:56:05;;;;;;;3.10;1.30;;;10.20;99.90;;;;;;4917063;29;20560;-61
2023/11/03 02:58:37;;;;;;;2.73;1.40;;;10.10;99.90;;;;;;4917395;29;20563;-61
2023/11/03 03:01:07;;;;;;;3.40;1.33;;;10.10;99.90;;;;;;4916478;29;20507;-61
2023/11/03 03:03:35;;;;;;;2.40;1.47;;;10.10;99.90;;;;;;4916275;28;20491;-61
2023/11/03 03:06:04;;;;;;;2.40;1.33;;;10.10;99.90;;;;;;4908419;29;20571;-61
2023/11/03 03:08:32;;;;;;;1.47;1.20;;;10.10;99.90;;;;;;4919097;29;20475;-61
2023/11/03 03:11:01;;;;;;;1.73;1.10;;;10.00;99.90;;;;;;4919484;29;20608;-61
2023/11/03 03:13:29;;;;;;;2.77;1.30;;;10.00;99.90;;;;;;4918556;28;20497;-61
2023/11/03 03:15:58;;;;;;;2.53;1.40;;;10.00;99.90;;;;;;4918138;29;20507;-61
2023/11/03 03:18:27;;;;;;;1.60;1.40;;;10.00;99.90;;;;;;4912536;29;20486;-61
2023/11/03 03:20:55;;;;;;;1.77;1.17;;;9.90;99.90;;;;;;4916373;29;20593;-61
2023/11/03 03:23:23;;;;;;;2.77;1.83;;;10.00;99.90;;;;;;4915555;28;20586;-61
2023/11/03 03:25:51;;;;;;;2.33;1.37;;;10.00;99.90;;;;;;4914419;29;20536;-61
2023/11/03 03:28:19;;;;;;;2.20;1.40;;;10.00;99.90;;;;;;4916496;29;20475;-61
2023/11/03 03:30:47;;;;;;;3.10;1.30;;;10.00;99.90;;;;;;4919510;29;20861;-62
2023/11/03 03:33:16;;;;;;;3.57;2.33;;;10.10;99.90;;;;;;4912528;28;20595;-61
2023/11/03 03:35:45;;;;;;;3.33;1.70;;;10.10;99.90;;;;;;4913904;29;20482;-61
2023/11/03 03:38:12;;;;;;;4.00;1.63;;;10.00;99.90;;;;;;4917006;29;20503;-61
2023/11/03 03:40:40;;;;;;;2.20;1.30;;;10.10;99.90;;;;;;4917048;29;20555;-61
2023/11/03 03:43:08;;;;;;;1.70;1.20;;;10.10;99.90;;;;;;4913308;28;20488;-61
2023/11/03 03:45:36;;;;;;;3.03;2.00;;;10.10;99.90;;;;;;4913418;29;20483;-61
2023/11/03 03:48:04;;;;;;;5.23;1.60;;;10.10;99.90;;;;;;4915617;29;20483;-61
2023/11/03 03:50:34;;;;;;;5.67;1.40;;;10.10;99.90;;;;;;4917805;29;20472;-61
2023/11/03 03:53:02;;;;;;;2.07;1.30;;;10.10;99.90;;;;;;4916831;28;21117;-61
2023/11/03 03:55:30;;;;;;;2.93;1.20;;;10.10;99.90;;;;;;4917510;29;21013;-61
2023/11/03 03:57:58;;;;;;;2.13;1.40;;;10.10;99.90;;;;;;4919712;29;20654;-61
2023/11/03 04:00:26;;;;;;;5.73;1.10;;;10.10;99.90;;;;;;4918117;29;20895;-60
2023/11/03 04:02:54;;;;;;;2.93;1.60;;;10.10;99.90;;;;;;4916440;28;20604;-61
2023/11/03 04:05:22;;;;;;;5.03;1.50;;;10.10;99.90;;;;;;4914062;29;20476;-61
2023/11/03 04:07:51;;;;;;;4.00;1.77;;;10.00;99.90;;;;;;4916919;29;20502;-61
2023/11/03 04:10:19;;;;;;;3.40;1.57;;;10.00;99.90;;;;;;4919193;29;20595;-61
2023/11/03 04:12:47;;;;;;;2.03;1.40;;;10.00;99.90;;;;;;4913970;28;20586;-61
2023/11/03 04:15:15;;;;;;;2.00;1.50;;;10.00;99.90;;;;;;4916160;29;21670;-60
2023/11/03 04:17:43;;;;;;;2.30;1.43;;;10.00;99.90;;;;;;4920111;29;20566;-61
2023/11/03 04:20:12;;;;;;;3.43;1.50;;;10.00;99.90;;;;;;4912899;29;20564;-61
2023/11/03 04:22:40;;;;;;;3.73;1.40;;;10.00;99.90;;;;;;4916276;29;20504;-61
2023/11/03 04:25:10;;;;;;;3.10;1.40;;;10.00;99.90;;;;;;4914115;28;20503;-60
2023/11/03 04:27:39;;;;;;;2.80;1.40;;;10.00;99.90;;;;;;4916375;29;20480;-61
2023/11/03 04:30:08;;;;;;;3.83;1.50;;;10.00;99.90;;;;;;4913411;29;20485;-61
2023/11/03 04:32:36;;;;;;;3.63;2.00;;;10.00;99.90;;;;;;4918491;29;20496;-61
2023/11/03 04:35:07;;;;;;;3.23;1.33;;;10.00;99.90;;;;;;4907291;28;20831;-61
2023/11/03 04:37:36;;;;;;;2.50;1.13;;;10.00;99.90;;;;;;4918252;29;20476;-61
2023/11/03 04:40:05;;;;;;;2.77;1.20;;;10.00;99.90;;;;;;4915092;29;20506;-61
2023/11/03 04:42:34;;;;;;;2.37;1.37;;;9.90;99.90;;;;;;4917487;29;20817;-60
2023/11/03 04:45:03;;;;;;;1.73;1.10;;;9.90;99.90;;;;;;4916190;28;20546;-61
2023/11/03 04:47:31;;;;;;;2.60;1.40;;;9.90;99.90;;;;;;4915063;29;20834;-61
2023/11/03 04:49:59;;;;;;;3.10;1.70;;;9.90;99.90;;;;;;4912666;29;20502;-60
2023/11/03 04:52:27;;;;;;;3.03;1.97;;;9.90;99.90;;;;;;4917025;29;20539;-61
2023/11/03 04:54:55;;;;;;;2.10;1.00;;;9.80;99.90;;;;;;4918307;28;20496;-61
2023/11/03 04:57:22;;;;;;;3.83;1.77;;;9.80;99.90;;;;;;4917470;29;20966;-61
2023/11/03 04:59:52;;;;;;;2.17;1.13;;;9.80;99.90;;;;;;4919548;29;20472;-61
2023/11/03 05:02:20;;;;;;;2.50;1.37;;;9.80;99.90;;;;;;4918304;29;20608;-61
2023/11/03 05:04:48;;;;;;;4.03;1.50;;;9.80;99.90;;;;;;4917741;28;20571;-61
2023/11/03 05:07:17;;;;;;;3.67;1.53;;;9.80;99.90;;;;;;4919905;29;20491;-61
2023/11/03 05:09:45;;;;;;;2.40;1.43;;;9.80;99.90;;;;;;4915673;29;20570;-62
2023/11/03 05:12:13;;;;;;;1.57;1.30;;;9.80;99.90;;;;;;4919658;29;20591;-61
2023/11/03 05:14:41;;;;;;;2.00;1.50;;;9.80;99.90;;;;;;4916891;28;20491;-61
2023/11/03 05:17:10;;;;;;;3.67;1.23;;;9.80;99.90;;;;;;4917326;29;20587;-61
2023/11/03 05:19:38;;;;;;;2.23;1.60;;;9.80;99.90;;;;;;4918626;29;20475;-61
2023/11/03 05:22:07;;;;;;;1.87;1.50;;;9.80;99.90;;;;;;4920220;29;20567;-62
2023/11/03 05:24:35;;;;;;;4.07;1.70;;;9.80;99.90;;;;;;4919381;28;20493;-61
2023/11/03 05:27:03;;;;;;;2.30;1.30;;;9.90;99.90;;;;;;4920556;29;20919;-62
2023/11/03 05:29:31;;;;;;;4.77;1.30;;;9.90;99.90;;;;;;4919585;29;20660;-62
2023/11/03 05:31:59;;;;;;;2.17;1.10;;;9.90;99.90;;;;;;4919966;29;20574;-62
2023/11/03 05:34:28;;;;;;;1.97;1.23;;;9.90;99.90;;;;;;4918537;28;20491;-61
2023/11/03 05:36:56;;;;;;;4.20;1.83;;;9.90;99.90;;;;;;4918971;29;20487;-61
2023/11/03 05:39:24;;;;;;;2.10;1.30;;;9.90;99.90;;;;;;4915840;29;20464;-61
2023/11/03 05:41:52;;;;;;;4.73;1.50;;;9.90;99.90;;;;;;4902059;29;20475;-61
2023/11/03 05:44:21;;;;;;;2.63;1.20;;;9.90;99.90;;;;;;4910175;28;20578;-62
2023/11/03 05:46:49;;;;;;;4.30;2.20;;;9.90;99.90;;;;;;4911477;29;20563;-61
2023/11/03 05:49:17;;;;;;;1.77;1.63;;;9.90;99.90;;;;;;4914468;29;20570;-61
2023/11/03 05:51:46;;;;;;;2.70;1.40;;;9.90;99.90;;;;;;4912310;29;20626;-61
2023/11/03 05:54:14;;;;;;;2.50;1.40;;;9.90;99.90;;;;;;4914042;28;20596;-61
2023/11/03 05:56:42;;;;;;;3.33;1.53;;;9.80;99.90;;;;;;4913899;29;20555;-61
2023/11/03 05:59:11;;;;;;;5.37;1.50;;;9.80;99.90;;;;;;4910831;29;20993;-62
2023/11/03 06:01:39;;;;;;;4.83;1.50;;;9.80;99.90;;;;;;4908528;29;20576;-62
2023/11/03 06:04:07;;;;;;;2.50;1.33;;;9.80;99.90;;;;;;4913907;28;20527;-61
2023/11/03 06:06:35;;;;;;;2.70;1.50;;;9.80;99.90;;;;;;4916987;29;20510;-61
2023/11/03 06:09:05;;;;;;;4.30;1.47;;;9.80;99.90;;;;;;4919159;29;20535;-62
2023/11/03 06:11:33;;;;;;;5.20;1.70;;;9.80;99.90;;;;;;4915755;29;20486;-61
2023/11/03 06:14:01;;;;;;;3.07;1.27;;;9.70;99.90;;;;;;4904889;28;21040;-61
2023/11/03 06:16:29;;;;;;;4.30;1.40;;;9.70;99.90;;;;;;4905520;29;20478;-61
2023/11/03 06:18:58;;;;;;;3.37;1.30;;;9.70;99.90;;;;;;4901423;29;20483;-62
2023/11/03 06:21:26;;;;;;;2.83;1.50;;;9.70;99.90;;;;;;4912395;29;20560;-62
2023/11/03 06:23:55;;;;;;;3.90;1.83;;;9.70;99.90;;;;;;4915617;28;20591;-62
2023/11/03 06:26:24;;;;;;;3.60;1.67;;;9.70;99.90;;;;;;4912742;29;20570;-62
2023/11/03 06:28:54;;;;;;;3.10;1.57;;;9.70;99.90;;;;;;4917559;29;20559;-61
2023/11/03 06:31:22;;;;;;;5.63;1.80;;;9.70;99.90;;;;;;4900217;29;20530;-61
2023/11/03 06:33:50;;;;;;;3.60;1.53;;;9.80;99.90;;;;;;4907874;28;20492;-61
2023/11/03 06:36:18;;;;;;;3.70;2.00;;;9.80;99.90;;;;;;4912235;29;20515;-61
2023/11/03 06:38:47;;;;;;;3.07;1.57;;;9.80;99.90;;;;;;4901197;29;20472;-60
2023/11/03 06:41:15;;;;;;;2.20;1.37;;;9.80;99.90;;;;;;4911858;29;20929;-61
2023/11/03 06:43:44;;;;;;;4.20;1.30;;;9.90;99.90;;;;;;4912596;28;20489;-60
2023/11/03 06:46:16;;;;;;;2.30;1.53;;;9.90;99.90;;;;;;4909345;29;20495;-60
2023/11/03 06:48:44;;;;;;;5.17;1.63;;;9.90;99.90;;;;;;4906894;29;20479;-61
2023/11/03 06:51:12;;;;;;;4.67;1.90;;;10.00;99.90;;;;;;4907930;29;20562;-60
2023/11/03 06:53:40;;;;;;;2.33;1.33;;;10.00;99.90;;;;;;4910024;28;20497;-61
2023/11/03 06:56:08;;;;;;;3.07;1.57;;;10.00;99.90;;;;;;4910445;29;20535;-60
2023/11/03 06:58:36;;;;;;;2.50;1.90;;;10.00;99.90;;;;;;4911448;29;20547;-60
2023/11/03 07:01:06;;;;;;;1.83;1.40;;;10.00;99.90;;;;;;4912499;29;20480;-61
2023/11/03 07:03:34;;;;;;;5.43;1.97;;;10.00;99.90;;;;;;4909944;28;20493;-61
2023/11/03 07:06:04;;;;;;;2.73;1.40;;;10.00;99.90;;;;;;4908104;29;20525;-61
2023/11/03 07:08:32;;;;;;;3.83;1.70;;;10.00;99.90;;;;;;4911708;29;20483;-61
2023/11/03 07:11:00;;;;;;;3.10;1.60;;;10.00;99.90;;;;;;4913057;29;20494;-61
2023/11/03 07:13:29;;;;;;;3.43;1.80;;;10.00;99.90;;;;;;4913886;28;20523;-61
2023/11/03 07:15:57;;;;;;;4.83;1.70;;;10.00;99.90;;;;;;4909450;29;20815;-61
2023/11/03 07:18:27;;;;;;;2.93;1.30;;;10.00;99.90;;;;;;4912196;29;20484;-61
2023/11/03 07:20:56;;;;;;;5.70;2.43;;;10.00;99.90;;;;;;4912628;29;20596;-60
2023/11/03 07:23:24;;;;;;;4.70;1.37;;;10.00;99.90;;;;;;4911605;28;20571;-60
2023/11/03 07:25:52;;;;;;;3.90;1.67;;;10.10;99.90;;;;;;4914484;29;20499;-61
2023/11/03 07:28:20;;;;;;;3.93;2.07;;;10.10;99.90;;;;;;4912805;29;21009;-61
2023/11/03 07:30:50;;;;;;;4.53;1.80;;;10.10;99.90;;;;;;4916152;29;20481;-61
2023/11/03 07:33:19;;;;;;;3.97;2.00;;;10.20;99.90;;;;;;4914899;28;20480;-60
2023/11/03 07:35:50;;;;;;;4.27;1.40;;;10.10;99.90;;;;;;4911836;29;20574;-61
2023/11/03 07:38:18;;;;;;;2.43;1.60;;;10.20;99.90;;;;;;4913064;29;20582;-61
2023/11/03 07:40:50;;;;;;;4.03;1.40;;;10.20;99.90;;;;;;4916027;29;20538;-61
2023/11/03 07:43:18;;;;;;;3.70;1.60;;;10.30;99.90;;;;;;4909132;28;21032;-61
2023/11/03 07:45:46;;;;;;;2.03;1.30;;;10.30;99.90;;;;;;4914417;29;20480;-61
2023/11/03 07:48:15;;;;;;;6.17;1.50;;;10.30;99.90;;;;;;4911563;29;20978;-60
2023/11/03 07:50:43;;;;;;;2.60;1.50;;;10.30;99.90;;;;;;4915526;29;20480;-60
2023/11/03 07:53:12;;;;;;;2.47;1.30;;;10.20;99.90;;;;;;4913430;28;20499;-60
2023/11/03 07:55:41;;;;;;;5.47;2.00;;;10.20;99.90;;;;;;4913498;29;20500;-61
2023/11/03 07:58:09;;;;;;;3.17;1.40;;;10.30;99.90;;;;;;4912784;29;20471;-61
2023/11/03 08:00:37;;;;;;;2.27;1.60;;;10.30;99.90;;;;;;4910921;29;20867;-61
2023/11/03 08:03:07;;;;;;;3.37;1.70;;;10.30;99.90;;;;;;4913169;28;20595;-61
2023/11/03 08:05:37;;;;;;;3.37;2.00;;;10.30;99.90;;;;;;4914138;29;20468;-61
2023/11/03 08:08:07;;;;;;;3.93;1.80;;;10.40;99.90;;;;;;4914237;29;20874;-61
2023/11/03 08:10:36;;;;;;;3.67;1.73;;;10.30;99.90;;;;;;4915051;29;20496;-63
2023/11/03 08:13:04;;;;;;;3.07;1.70;;;10.30;99.90;;;;;;4912915;28;20588;-61
2023/11/03 08:15:33;;;;;;;3.33;1.70;;;10.40;99.90;;;;;;4915891;29;20518;-61
2023/11/03 08:18:01;;;;;;;5.73;2.17;;;10.40;99.90;;;;;;4910304;29;20826;-61
2023/11/03 08:20:30;;;;;;;2.07;1.33;;;10.40;99.90;;;;;;4912020;29;20472;-61
2023/11/03 08:22:58;;;;;;;4.17;1.70;;;10.50;99.90;;;;;;4911533;28;21005;-61
2023/11/03 08:25:27;;;;;;;3.07;1.30;;;10.50;99.90;;;;;;4910704;29;20480;-61
2023/11/03 08:27:57;;;;;;;2.80;1.30;;;10.50;99.90;;;;;;4906714;29;20478;-60
2023/11/03 08:30:25;;;;;;;2.90;1.60;;;10.60;99.90;;;;;;4913140;29;20538;-61
2023/11/03 08:32:54;;;;;;;2.90;1.50;;;10.60;99.90;;;;;;4908541;28;20506;-60
2023/11/03 08:35:23;;;;;;;2.10;1.80;;;10.60;99.90;;;;;;4914957;29;20507;-60
2023/11/03 08:37:52;;;;;;;2.30;1.30;;;10.60;99.90;;;;;;4915904;29;20570;-61
2023/11/03 08:40:21;;;;;;;4.87;1.70;;;10.60;99.90;;;;;;4917852;29;21031;-63
2023/11/03 08:42:50;;;;;;;1.70;1.43;;;10.60;99.90;;;;;;4919388;28;20990;-61
2023/11/03 08:45:20;;;;;;;3.90;1.70;;;10.60;99.90;;;;;;4915451;29;20468;-61
2023/11/03 08:47:51;;;;;;;2.43;1.57;;;10.50;99.90;;;;;;4917099;29;20475;-60
2023/11/03 08:50:19;;;;;;;1.90;1.20;;;10.50;99.90;;;;;;4917762;29;20475;-63
2023/11/03 08:52:47;;;;;;;3.23;1.33;;;10.50;99.90;;;;;;4919193;28;20586;-60
2023/11/03 08:55:16;;;;;;;2.87;1.73;;;10.50;99.90;;;;;;4914780;29;21010;-61
2023/11/03 08:57:44;;;;;;;3.80;1.93;;;10.50;99.90;;;;;;4917629;29;20851;-60
2023/11/03 09:00:15;;;;;;;3.60;1.53;;;10.50;99.90;;;;;;4919504;29;20574;-60
2023/11/03 09:02:47;;;;;;;5.37;1.63;;;10.50;99.90;;;;;;4917853;29;21021;-60
2023/11/03 09:05:16;;;;;;;3.90;1.67;;;10.50;99.90;;;;;;4914311;29;20508;-60
2023/11/03 09:07:45;;;;;;;4.53;1.90;;;10.50;99.90;;;;;;4916183;29;20484;-62
2023/11/03 09:10:13;;;;;;;3.13;1.70;;;10.40;99.90;;;;;;4918714;29;20507;-61
2023/11/03 09:12:42;;;;;;;3.00;1.80;;;10.40;99.90;;;;;;4918933;29;20587;-61
2023/11/03 09:15:11;;;;;;;3.27;1.57;;;10.40;99.90;;;;;;4913533;28;20610;-61
2023/11/03 09:17:45;;;;;;;4.40;1.60;;;10.40;99.90;;;;;;4916461;29;20950;-60
2023/11/03 09:20:17;;;;;;;1.90;1.40;;;10.40;99.90;;;;;;4918020;29;20806;-60
2023/11/03 09:22:47;;;;;;;3.20;1.70;;;10.30;99.90;;;;;;4916627;29;20500;-60
2023/11/03 09:25:15;;;;;;;2.60;1.27;;;10.40;99.90;;;;;;4912604;29;20479;-61
2023/11/03 09:27:43;;;;;;;2.87;1.43;;;10.30;99.90;;;;;;4912753;29;20473;-60
2023/11/03 09:30:12;;;;;;;5.13;2.07;;;10.30;99.90;;;;;;4915969;29;21082;-61
2023/11/03 09:32:41;;;;;;;3.93;2.00;;;10.30;99.90;;;;;;4914461;29;21033;-61
2023/11/03 09:35:10;;;;;;;3.37;1.53;;;10.30;99.90;;;;;;4917100;28;20488;-63
2023/11/03 09:37:39;;;;;;;4.60;1.80;;;10.40;99.90;;;;;;4914104;29;20504;-60
2023/11/03 09:40:09;;;;;;;3.03;1.63;;;10.50;99.90;;;;;;4916193;29;20479;-61
2023/11/03 09:42:37;;;;;;;2.97;1.60;;;10.50;99.90;;;;;;4916205;29;20514;-60
2023/11/03 09:45:12;;;;;;;2.80;1.60;;;10.50;99.90;;;;;;4913650;28;20493;-63
2023/11/03 09:47:41;;;;;;;4.50;1.80;;;10.40;99.90;;;;;;4910453;29;20738;-62
2023/11/03 09:50:11;;;;;;;3.07;2.47;;;10.40;99.90;;;;;;4910596;29;20480;-61
2023/11/03 09:52:46;;;;;;;4.60;1.53;;;10.40;99.90;;;;;;4911749;29;20511;-60
2023/11/03 09:55:17;;;;;;;5.80;1.50;;;10.50;99.90;;;;;;4911719;29;20841;-62
2023/11/03 09:57:49;;;;;;;2.40;1.90;;;10.40;99.90;;;;;;4910793;29;20922;-60
2023/11/03 10:00:22;;;;;;;2.63;1.53;;;10.50;99.90;;;;;;4912887;29;20476;-60
2023/11/03 10:02:50;;;;;;;4.27;1.77;;;10.50;99.90;;;;;;4909230;28;21001;-63
2023/11/03 10:05:19;;;;;;;1.90;1.37;;;10.40;99.90;;;;;;4912772;29;20487;-60
2023/11/03 10:07:54;;;;;;;2.13;1.50;;;10.40;99.90;;;;;;4910834;28;20486;-61
2023/11/03 10:10:22;;;;;;;2.23;1.70;;;10.40;99.90;;;;;;4915910;29;20894;-61
2023/11/03 10:12:51;;;;;;;7.13;2.23;;;10.50;99.90;;;;;;4915497;28;20815;-62
2023/11/03 10:15:19;;;;;;;3.30;1.83;;;10.50;99.90;;;;;;4915407;29;20475;-61
2023/11/03 10:17:47;;;;;;;2.00;1.70;;;10.50;99.90;;;;;;4914169;29;20512;-60
2023/11/03 10:20:16;;;;;;;3.57;2.07;;;10.50;99.90;;;;;;4912850;28;20479;-61
2023/11/03 10:22:47;;;;;;;2.97;1.90;;;10.50;99.90;;;;;;4913677;29;20602;-61
2023/11/03 10:25:17;;;;;;;2.93;1.83;;;10.60;99.90;;;;;;4912865;29;20485;-63
2023/11/03 10:27:48;;;;;;;3.40;1.67;;;10.60;99.90;;;;;;4916028;29;20563;-61
2023/11/03 10:30:20;;;;;;;3.17;1.80;;;10.60;99.90;;;;;;4912330;29;20824;-61
2023/11/03 10:32:48;;;;;;;3.20;2.10;;;10.70;99.90;;;;;;4916064;28;20501;-63
2023/11/03 10:35:17;;;;;;;2.07;1.77;;;10.80;99.90;;;;;;4914788;29;20745;-61
2023/11/03 10:37:46;;;;;;;2.57;1.73;;;10.80;99.90;;;;;;4912056;29;20496;-60
2023/11/03 10:40:16;;;;;;;2.87;2.17;;;10.90;99.90;;;;;;4911932;29;20555;-61
2023/11/03 10:42:47;;;;;;;3.00;2.20;;;11.00;99.90;;;;;;4915904;29;21117;-61
2023/11/03 10:45:17;;;;;;;3.10;2.00;;;11.00;99.90;;;;;;4911201;29;20866;-61
2023/11/03 10:48:04;;;;;;;3.23;2.30;;;11.10;99.90;;;;;;4915939;29;20480;-61
2023/11/03 10:50:35;;;;;;;4.23;2.30;;;11.10;99.90;;;;;;4910694;29;20476;-62
2023/11/03 10:53:12;;;;;;;5.47;2.13;;;11.20;99.90;;;;;;4915055;28;20909;-61
2023/11/03 10:55:49;;;;;;;2.33;2.13;;;11.20;99.90;;;;;;4915243;29;20535;-61
2023/11/03 10:58:17;;;;;;;3.57;2.87;;;11.30;99.90;;;;;;4917815;29;20519;-61
2023/11/03 11:00:59;;;;;;;2.73;2.20;;;11.30;99.90;;;;;;4914851;29;20501;-61
2023/11/03 11:03:32;;;;;;;3.57;2.43;;;11.30;99.90;;;;;;4911101;28;20929;-61
2023/11/03 11:06:05;;;;;;;4.37;3.00;;;11.30;99.90;;;;;;4914540;29;20475;-60
2023/11/03 11:08:36;;;;;;;3.57;2.63;;;11.30;99.90;;;;;;4909804;29;20628;-61
2023/11/03 11:11:10;;;;;;;3.30;3.00;;;11.40;99.90;;;;;;4915596;29;21065;-61
2023/11/03 11:13:41;;;;;;;3.70;2.87;;;11.40;99.90;;;;;;4911761;28;20492;-61
2023/11/03 11:16:12;;;;;;;3.77;3.37;;;11.40;99.90;;;;;;4910823;29;20484;-61
2023/11/03 11:18:45;;;;;;;3.37;2.70;;;11.30;99.90;;;;;;4916387;29;20515;-62
2023/11/03 11:21:15;;;;;;;3.80;2.87;;;11.30;99.90;;;;;;4908442;29;20904;-60
2023/11/03 11:23:47;;;;;;;4.10;2.93;;;11.20;99.90;;;;;;4908127;28;20786;-61
2023/11/03 11:26:20;;;;;;;3.73;2.67;;;11.20;99.90;;;;;;4914664;29;20535;-61
2023/11/03 11:29:02;;;;;;;6.67;2.90;;;11.20;99.90;;;;;;4905921;29;20952;-61
2023/11/03 11:31:38;;;;;;;5.40;3.30;;;11.20;99.90;;;;;;4912251;29;20480;-61
2023/11/03 11:34:07;;;;;;;5.93;3.30;;;11.20;99.90;;;;;;4913946;28;20515;-62
2023/11/03 11:36:39;;;;;;;6.10;3.07;;;11.20;99.90;;;;;;4903060;29;20479;-62
2023/11/03 11:39:17;;;;;;;4.00;3.07;;;11.10;99.90;;;;;;4909333;29;20479;-62
2023/11/03 11:41:53;;;;;;;3.93;2.83;;;11.10;99.90;;;;;;4914277;29;20489;-61
2023/11/03 11:44:25;;;;;;;3.77;3.43;;;11.20;99.90;;;;;;4910584;28;20510;-61
2023/11/03 11:46:56;;;;;;;4.90;3.20;;;11.20;99.90;;;;;;4913749;29;20484;-61
2023/11/03 11:49:26;;;;;;;3.33;3.03;;;11.20;99.90;;;;;;4910991;29;20853;-62
2023/11/03 11:51:56;;;;;;;4.50;3.37;;;11.10;99.90;;;;;;4906717;29;20476;-61
2023/11/03 11:54:25;;;;;;;2.90;2.70;;;11.20;99.90;;;;;;4915866;28;20504;-61
2023/11/03 11:56:54;;;;;;;6.40;3.50;;;11.20;99.90;;;;;;4914762;29;20861;-62
2023/11/03 11:59:23;;;;;;;4.23;3.10;;;11.20;99.90;;;;;;4910055;29;20572;-62
2023/11/03 12:01:54;;;;;;;4.23;2.80;;;11.20;99.90;;;;;;4910909;29;20566;-61
2023/11/03 12:04:23;;;;;;;4.33;3.37;;;11.20;99.90;;;;;;4910818;28;20511;-61
2023/11/03 12:06:52;;;;;;;5.03;2.97;;;11.30;99.90;;;;;;4917873;29;20636;-61
2023/11/03 12:09:21;;;;;;;2.77;2.57;;;11.40;99.90;;;;;;4919146;29;20475;-61
2023/11/03 12:11:49;;;;;;;3.80;2.50;;;11.30;99.90;;;;;;4917468;29;20489;-61
2023/11/03 12:14:18;;;;;;;2.33;2.10;;;11.40;99.90;;;;;;4915831;28;20611;-62
2023/11/03 12:16:47;;;;;;;2.67;2.43;;;11.40;99.90;;;;;;4918735;29;20582;-61
2023/11/03 12:19:15;;;;;;;4.50;2.37;;;11.40;99.90;;;;;;4916871;29;20535;-61
2023/11/03 12:21:43;;;;;;;3.90;2.80;;;11.50;99.90;;;;;;4919483;29;20475;-61
2023/11/03 12:24:12;;;;;;;4.50;2.80;;;11.50;99.90;;;;;;4918026;28;21576;-61
2023/11/03 12:26:41;;;;;;;4.60;2.70;;;11.50;99.90;;;;;;4919521;29;20570;-61
2023/11/03 12:29:28;;;;;;;5.20;2.53;;;11.60;99.90;;;;;;4913584;29;20578;-62
2023/11/03 12:31:58;;;;;;;4.60;3.00;;;11.60;99.90;;;;;;4915858;29;21177;-60
2023/11/03 12:34:27;;;;;;;4.50;3.03;;;11.60;99.90;;;;;;4919726;28;20488;-61
2023/11/03 12:36:57;;;;;;;2.50;2.30;;;11.60;99.90;;;;;;4909799;29;20494;-61
2023/11/03 12:39:25;;;;;;;3.50;2.97;;;11.70;99.90;;;;;;4918485;29;20579;-61
2023/11/03 12:42:02;;;;;;;2.90;2.70;;;11.70;99.90;;;;;;4919322;29;20472;-61
2023/11/03 12:44:31;;;;;;;3.57;2.80;;;11.70;99.90;;;;;;4914757;28;20590;-61
2023/11/03 12:47:01;;;;;;;3.10;2.67;;;11.70;99.90;;;;;;4917655;29;20607;-61
2023/11/03 12:49:31;;;;;;;5.17;3.23;;;11.70;99.90;;;;;;4917176;29;20560;-61
2023/11/03 12:51:59;;;;;;;3.63;3.10;;;11.70;99.90;;;;;;4914787;29;20480;-60
2023/11/03 12:54:28;;;;;;;3.73;2.97;;;11.70;99.90;;;;;;4916555;28;20665;-60
2023/11/03 12:56:56;;;;;;;3.10;2.77;;;11.70;99.90;;;;;;4916621;29;20558;-61
2023/11/03 12:59:24;;;;;;;3.50;2.90;;;11.60;99.90;;;;;;4915397;29;20504;-60